Time;durP1;ratioP1;P1;durP2;ratioP2;P2;SDS_P1;SDS_P2;PMS_P1;PMS_P2;Temp;Humidity;BMP_temperature;BMP_pressure;BME280_temperature;BME280_humidity;BME280_pressure;Samples;Min_cycle;Max_cycle;Signal;HPM_P1;HPM_P2
2022/04/16 03:00:54;;;;;;;15.07;14.37;;;6.60;99.90;;;;;;5667452;23;20245;-81
2022/04/16 03:03:22;;;;;;;17.70;16.73;;;6.60;99.90;;;;;;4950132;29;20189;-82
2022/04/16 03:05:48;;;;;;;20.50;19.47;;;6.70;99.90;;;;;;4955644;28;20174;-79
2022/04/16 03:08:15;;;;;;;29.37;27.93;;;6.80;99.90;;;;;;4959131;28;20202;-80
2022/04/16 03:10:41;;;;;;;21.67;20.47;;;6.80;99.90;;;;;;4959157;28;20186;-79
2022/04/16 03:13:07;;;;;;;18.77;17.80;;;6.90;99.90;;;;;;4977377;23;20253;-84
2022/04/16 03:18:18;;;;;;;15.27;14.47;;;7.00;99.90;;;;;;4944271;29;20195;-85
2022/04/16 03:20:44;;;;;;;15.93;15.00;;;7.00;99.90;;;;;;4945881;29;20186;-85
2022/04/16 03:23:10;;;;;;;21.23;20.13;;;7.10;99.90;;;;;;4948518;29;20224;-82
2022/04/16 03:25:40;;;;;;;15.30;14.47;;;7.00;99.90;;;;;;4928659;29;20634;-84
2022/04/16 03:28:06;;;;;;;29.63;28.10;;;7.10;99.90;;;;;;4921083;29;20195;-84
2022/04/16 03:30:32;;;;;;;22.03;20.93;;;7.10;99.90;;;;;;4919615;29;20179;-84
2022/04/16 03:32:59;;;;;;;24.97;23.77;;;7.20;99.90;;;;;;4928145;29;20227;-84
2022/04/16 03:35:25;;;;;;;49.67;46.90;;;7.20;99.90;;;;;;4934217;29;20179;-85
2022/04/16 03:37:51;;;;;;;47.23;44.83;;;7.10;99.90;;;;;;4934790;29;20183;-82
2022/04/16 03:40:17;;;;;;;48.87;46.27;;;7.00;99.90;;;;;;4935620;29;20189;-84
2022/04/16 03:42:54;;;;;;;24.10;22.80;;;6.80;99.90;;;;;;4934723;29;20247;-84
2022/04/16 03:45:25;;;;;;;21.63;20.43;;;6.80;99.90;;;;;;4921168;29;20186;-86
2022/04/16 03:47:53;;;;;;;32.33;30.50;;;6.70;99.90;;;;;;4916991;29;20210;-85
2022/04/16 03:50:23;;;;;;;40.97;38.80;;;6.50;99.90;;;;;;4924164;29;20206;-83
2022/04/16 03:52:50;;;;;;;56.03;52.53;;;6.50;99.90;;;;;;4925284;29;20294;-85
2022/04/16 04:00:52;;;;;;;36.00;34.20;;;6.20;99.90;;;;;;4929924;29;20229;-75
2022/04/16 04:03:19;;;;;;;112.13;106.53;;;6.20;99.90;;;;;;4916004;29;20199;-76
2022/04/16 04:05:45;;;;;;;101.83;96.63;;;6.10;99.90;;;;;;4914367;29;20179;-76
2022/04/16 04:08:12;;;;;;;62.00;58.80;;;6.00;99.90;;;;;;4913559;29;20693;-75
2022/04/16 04:10:38;;;;;;;42.40;40.20;;;6.00;99.90;;;;;;4915450;29;20662;-76
2022/04/16 04:13:04;;;;;;;46.83;44.53;;;6.10;99.90;;;;;;4914538;29;20361;-76
2022/04/16 04:15:30;;;;;;;57.53;54.53;;;6.10;99.90;;;;;;4914521;29;20565;-76
2022/04/16 04:17:58;;;;;;;47.70;45.10;;;6.10;99.90;;;;;;4913993;29;20865;-76
2022/04/16 04:20:25;;;;;;;62.07;59.07;;;6.30;99.90;;;;;;4914778;29;20180;-76
2022/04/16 04:22:51;;;;;;;52.67;49.97;;;6.30;99.90;;;;;;4914771;29;20250;-76
2022/04/16 04:25:17;;;;;;;107.67;102.30;;;6.30;99.90;;;;;;4914741;29;20183;-76
2022/04/16 04:27:43;;;;;;;23.07;21.83;;;6.40;99.90;;;;;;4913134;29;20182;-76
2022/04/16 04:30:10;;;;;;;25.63;24.30;;;6.40;99.90;;;;;;4913467;29;20194;-76
2022/04/16 04:32:36;;;;;;;41.77;39.60;;;6.40;99.90;;;;;;4914753;29;20536;-75
2022/04/16 04:35:03;;;;;;;13.97;13.20;;;6.50;99.90;;;;;;4913437;29;20225;-76
2022/04/16 04:37:28;;;;;;;18.07;17.07;;;6.60;99.90;;;;;;4914197;29;20605;-76
2022/04/16 04:39:54;;;;;;;16.83;15.63;;;6.70;99.90;;;;;;4913360;29;20198;-76
2022/04/16 04:42:24;;;;;;;9.57;9.03;;;6.80;99.90;;;;;;4914285;29;20191;-76
2022/04/16 04:44:50;;;;;;;15.73;14.27;;;6.90;99.90;;;;;;4911257;29;20242;-76
2022/04/16 04:47:16;;;;;;;11.00;10.20;;;7.00;99.90;;;;;;4914400;29;20615;-76
2022/04/16 04:49:41;;;;;;;12.57;11.87;;;7.20;99.90;;;;;;4913225;29;20187;-76
2022/04/16 04:52:07;;;;;;;10.70;10.00;;;7.20;99.90;;;;;;4913289;29;20209;-76
2022/04/16 04:54:33;;;;;;;9.97;9.37;;;7.20;99.90;;;;;;4914295;29;20225;-76
2022/04/16 04:56:59;;;;;;;14.83;13.97;;;7.30;99.90;;;;;;4913732;29;20171;-76
2022/04/16 04:59:25;;;;;;;10.53;9.93;;;7.40;99.90;;;;;;4915184;29;20183;-76
2022/04/16 05:01:51;;;;;;;9.60;9.00;;;7.50;99.90;;;;;;4917398;29;20277;-76
2022/04/16 05:04:16;;;;;;;7.20;6.77;;;7.50;99.90;;;;;;4917926;29;20206;-76
2022/04/16 05:06:42;;;;;;;6.87;6.47;;;7.50;99.90;;;;;;4917912;29;20182;-76
2022/04/16 05:09:11;;;;;;;7.27;6.73;;;7.50;99.90;;;;;;4919339;29;20276;-76
2022/04/16 05:11:36;;;;;;;8.03;7.50;;;7.60;99.90;;;;;;4918715;29;20187;-76
2022/04/16 05:14:03;;;;;;;7.63;7.23;;;7.60;99.90;;;;;;4913367;29;20221;-76
2022/04/16 05:16:28;;;;;;;8.10;7.60;;;7.60;99.90;;;;;;4915961;29;20186;-76
2022/04/16 05:18:54;;;;;;;7.90;7.40;;;7.60;99.90;;;;;;4916075;29;20605;-75
2022/04/16 05:21:20;;;;;;;8.40;8.00;;;7.60;99.90;;;;;;4917583;29;20183;-76
2022/04/16 05:23:46;;;;;;;7.80;7.30;;;7.80;99.90;;;;;;4923792;29;20213;-75
2022/04/16 05:26:12;;;;;;;8.87;8.27;;;7.90;99.90;;;;;;4925330;29;20606;-76
2022/04/16 05:28:39;;;;;;;13.40;12.77;;;8.00;99.90;;;;;;4916499;29;20218;-76
2022/04/16 05:31:06;;;;;;;19.83;18.83;;;8.00;99.90;;;;;;4916601;29;20587;-76
2022/04/16 05:36:17;;;;;;;7.10;6.70;;;8.00;99.90;;;;;;4917417;29;20662;-76
2022/04/16 05:38:44;;;;;;;8.37;7.87;;;8.00;99.90;;;;;;4915718;29;20235;-75
2022/04/16 05:41:10;;;;;;;11.87;11.10;;;8.10;99.90;;;;;;4916169;29;20190;-76
2022/04/16 05:43:35;;;;;;;9.27;8.67;;;8.20;99.90;;;;;;4915602;29;20196;-76
2022/04/16 05:46:02;;;;;;;8.00;7.40;;;8.30;99.90;;;;;;4916023;29;20187;-76
2022/04/16 05:48:27;;;;;;;8.70;8.10;;;8.30;99.90;;;;;;4915605;29;20183;-76
2022/04/16 05:50:55;;;;;;;7.23;6.80;;;8.20;99.90;;;;;;4915779;29;20183;-76
2022/04/16 05:53:22;;;;;;;7.70;7.20;;;8.20;99.90;;;;;;4916722;29;20298;-76
2022/04/16 05:55:50;;;;;;;7.27;6.77;;;8.30;99.90;;;;;;4916084;29;20187;-76
2022/04/16 05:58:17;;;;;;;19.50;18.20;;;8.40;99.90;;;;;;4916819;29;20185;-77
2022/04/16 06:00:42;;;;;;;34.47;32.47;;;8.50;99.90;;;;;;4917073;29;20192;-77
2022/04/16 06:03:08;;;;;;;28.87;27.37;;;8.60;99.90;;;;;;4915971;29;20698;-77
2022/04/16 06:05:35;;;;;;;20.00;18.90;;;8.70;99.90;;;;;;4916759;29;20211;-77
2022/04/16 06:08:01;;;;;;;7.80;7.30;;;8.90;99.90;;;;;;4917612;29;20229;-77
2022/04/16 06:10:27;;;;;;;6.63;6.23;;;9.00;99.90;;;;;;4916086;29;20194;-77
2022/04/16 06:12:53;;;;;;;6.50;6.10;;;9.00;99.90;;;;;;4918335;29;20742;-76
2022/04/16 06:15:19;;;;;;;6.97;6.47;;;9.10;99.90;;;;;;4924942;29;20183;-77
2022/04/16 06:17:45;;;;;;;8.00;7.50;;;9.10;99.90;;;;;;4915915;29;20194;-77
2022/04/16 06:20:12;;;;;;;9.20;8.67;;;9.20;99.90;;;;;;4915641;29;20286;-76
2022/04/16 06:22:39;;;;;;;9.40;8.90;;;9.20;99.90;;;;;;4914942;29;20234;-77
2022/04/16 06:25:08;;;;;;;10.23;9.53;;;9.30;99.90;;;;;;4916395;29;20190;-77
2022/04/16 06:27:38;;;;;;;10.13;9.47;;;9.40;99.90;;;;;;4915888;29;20694;-77
2022/04/16 06:30:11;;;;;;;11.67;10.87;;;9.40;99.90;;;;;;4916235;29;20294;-76
2022/04/16 06:32:38;;;;;;;12.53;11.83;;;9.50;99.90;;;;;;4915524;29;20194;-73
2022/04/16 06:35:05;;;;;;;12.60;11.77;;;9.50;99.90;;;;;;4914504;29;20210;-73
2022/04/16 06:37:35;;;;;;;12.17;11.57;;;9.60;99.90;;;;;;4916680;29;20687;-78
2022/04/16 06:40:02;;;;;;;12.10;11.37;;;9.60;99.90;;;;;;4922865;29;20183;-77
2022/04/16 06:42:28;;;;;;;10.77;10.07;;;9.60;99.90;;;;;;4917475;29;20230;-77
2022/04/16 06:44:54;;;;;;;9.67;9.10;;;9.70;99.90;;;;;;4917053;29;20679;-78
2022/04/16 06:47:20;;;;;;;9.83;9.13;;;9.80;99.90;;;;;;4916490;29;20191;-76
2022/04/16 06:49:45;;;;;;;8.83;8.30;;;9.90;99.90;;;;;;4915313;29;20210;-76
2022/04/16 06:52:12;;;;;;;11.60;10.80;;;9.90;99.90;;;;;;4896124;29;20195;-76
2022/04/16 06:54:38;;;;;;;11.30;10.57;;;10.00;99.90;;;;;;4895818;29;20215;-76
2022/04/16 06:57:04;;;;;;;13.13;12.23;;;10.00;99.90;;;;;;4900962;29;20655;-76
2022/04/16 06:59:30;;;;;;;12.50;11.70;;;9.90;99.90;;;;;;4915691;29;20190;-76
2022/04/16 07:01:56;;;;;;;11.93;11.13;;;9.90;99.90;;;;;;4913657;29;20183;-76
2022/04/16 07:04:22;;;;;;;12.60;11.90;;;10.10;99.90;;;;;;4915711;29;20687;-76
2022/04/16 07:06:47;;;;;;;10.40;9.80;;;10.10;99.90;;;;;;4914674;29;20183;-76
2022/04/16 07:09:13;;;;;;;11.23;10.53;;;10.20;99.90;;;;;;4914695;29;20190;-76
2022/04/16 07:11:39;;;;;;;9.07;8.47;;;10.30;99.90;;;;;;4915128;29;20205;-76
2022/04/16 07:14:05;;;;;;;8.40;7.57;;;10.40;99.90;;;;;;4915589;29;20225;-76
2022/04/16 07:16:30;;;;;;;11.87;11.17;;;10.50;99.90;;;;;;4915637;29;20187;-76
2022/04/16 07:18:56;;;;;;;13.37;12.57;;;10.60;99.90;;;;;;4915347;29;20635;-76
2022/04/16 07:21:22;;;;;;;13.37;12.57;;;10.80;99.90;;;;;;4915945;29;20183;-76
2022/04/16 07:23:47;;;;;;;13.53;12.67;;;10.80;99.90;;;;;;4919995;29;20266;-77
2022/04/16 07:26:13;;;;;;;10.67;10.17;;;10.90;99.90;;;;;;4917778;29;20179;-77
2022/04/16 07:28:39;;;;;;;9.73;9.13;;;10.90;99.90;;;;;;4916447;29;20179;-77
2022/04/16 07:31:05;;;;;;;9.70;9.20;;;10.90;99.90;;;;;;4914625;29;20194;-76
2022/04/16 07:33:31;;;;;;;8.57;7.87;;;10.90;99.90;;;;;;4914907;29;20210;-76
2022/04/16 07:35:57;;;;;;;6.73;6.30;;;11.10;99.90;;;;;;4914239;29;20510;-77
2022/04/16 07:38:23;;;;;;;7.93;7.20;;;11.20;99.90;;;;;;4914028;29;20183;-76
2022/04/16 07:40:48;;;;;;;7.07;6.47;;;11.30;99.90;;;;;;4915315;29;20598;-77
2022/04/16 07:43:15;;;;;;;7.67;7.17;;;11.50;99.90;;;;;;4915811;29;20205;-76
2022/04/16 07:45:41;;;;;;;9.73;8.87;;;11.60;99.90;;;;;;4916252;29;20293;-76
2022/04/16 07:48:08;;;;;;;9.70;8.97;;;11.70;99.90;;;;;;4914731;29;20662;-76
2022/04/16 07:50:33;;;;;;;8.87;8.27;;;11.90;99.90;;;;;;4914149;29;20611;-76
2022/04/16 07:52:59;;;;;;;8.37;7.77;;;11.90;99.90;;;;;;4914513;29;20207;-76
2022/04/16 07:55:28;;;;;;;8.30;7.50;;;12.00;99.90;;;;;;4914537;29;20234;-76
2022/04/16 07:57:54;;;;;;;10.43;7.17;;;11.90;99.90;;;;;;4914767;29;20179;-76
2022/04/16 08:00:20;;;;;;;7.97;7.37;;;12.00;99.90;;;;;;4915145;29;20187;-76
2022/04/16 08:02:46;;;;;;;9.03;7.70;;;11.90;99.90;;;;;;4914971;29;20180;-75
2022/04/16 08:05:12;;;;;;;7.50;6.90;;;11.80;99.90;;;;;;4914787;29;20185;-76
2022/04/16 08:07:37;;;;;;;8.20;7.43;;;11.80;99.90;;;;;;4914675;29;20197;-76
2022/04/16 08:10:04;;;;;;;9.40;8.60;;;11.70;99.90;;;;;;4915089;29;20206;-75
2022/04/16 08:12:30;;;;;;;11.10;10.30;;;11.50;99.90;;;;;;4913566;29;20223;-75
2022/04/16 08:14:56;;;;;;;11.57;10.77;;;11.50;99.90;;;;;;4914921;29;20699;-76
2022/04/16 08:17:22;;;;;;;11.87;11.07;;;11.50;99.90;;;;;;4914427;29;20247;-76
2022/04/16 08:19:47;;;;;;;11.20;10.40;;;11.50;99.90;;;;;;4912640;29;20179;-76
2022/04/16 08:22:18;;;;;;;12.07;11.27;;;11.50;99.90;;;;;;4915019;29;20186;-76
2022/04/16 08:24:54;;;;;;;13.13;11.93;;;11.60;99.90;;;;;;4913843;29;20207;-76
2022/04/16 08:27:21;;;;;;;12.53;11.53;;;11.40;99.90;;;;;;4915859;29;20183;-76
2022/04/16 08:29:47;;;;;;;8.97;8.20;;;11.20;99.90;;;;;;4913865;29;20182;-75
2022/04/16 08:32:13;;;;;;;9.10;8.20;;;11.10;99.90;;;;;;4913785;29;20335;-76
2022/04/16 08:34:39;;;;;;;10.00;8.93;;;11.10;99.90;;;;;;4924556;29;20262;-76
2022/04/16 08:37:05;;;;;;;10.10;9.10;;;11.00;99.90;;;;;;4932591;29;20189;-76
2022/04/16 08:39:30;;;;;;;9.93;8.93;;;11.10;99.90;;;;;;4926562;29;20189;-76
2022/04/16 08:41:57;;;;;;;11.20;9.83;;;11.20;99.90;;;;;;4918959;29;20257;-77
2022/04/16 08:44:26;;;;;;;9.57;8.67;;;11.30;99.90;;;;;;4920425;29;20205;-77
2022/04/16 08:46:54;;;;;;;12.20;10.97;;;11.40;99.90;;;;;;4919718;29;20187;-77
2022/04/16 08:49:21;;;;;;;12.70;11.50;;;11.40;99.90;;;;;;4916690;29;20183;-77
2022/04/16 08:51:48;;;;;;;13.27;12.17;;;11.50;99.90;;;;;;4918897;29;20187;-76
2022/04/16 08:54:14;;;;;;;14.33;13.13;;;11.50;99.90;;;;;;4919090;29;20679;-76
2022/04/16 08:56:39;;;;;;;14.23;13.03;;;11.40;99.90;;;;;;4918499;29;20282;-76
2022/04/16 08:59:05;;;;;;;13.30;12.20;;;11.60;99.90;;;;;;4918116;29;20187;-76
2022/04/16 09:01:33;;;;;;;12.47;11.40;;;11.60;99.90;;;;;;4918110;29;20191;-75
2022/04/16 09:03:59;;;;;;;12.90;11.60;;;11.70;99.90;;;;;;4919008;29;20234;-75
2022/04/16 09:06:25;;;;;;;11.67;10.50;;;11.80;99.90;;;;;;4920352;29;20206;-77
2022/04/16 09:08:51;;;;;;;9.13;8.13;;;12.20;99.90;;;;;;4918783;29;20183;-76
2022/04/16 09:11:22;;;;;;;7.90;7.10;;;12.20;99.90;;;;;;4917264;29;20197;-76
2022/04/16 09:13:55;;;;;;;11.63;9.80;;;12.30;99.90;;;;;;4945153;23;20244;-75
2022/04/16 09:16:22;;;;;;;10.77;9.77;;;12.40;99.90;;;;;;4950627;29;20270;-75
2022/04/16 09:18:53;;;;;;;10.57;9.57;;;12.70;99.90;;;;;;4937122;29;20175;-75
2022/04/16 09:21:24;;;;;;;10.87;9.87;;;13.00;99.90;;;;;;4952191;29;20682;-75
2022/04/16 09:23:56;;;;;;;10.97;10.03;;;13.10;99.90;;;;;;4937552;29;20314;-75
2022/04/16 09:26:40;;;;;;;10.87;9.87;;;13.20;99.90;;;;;;4938133;29;20194;-76
2022/04/16 09:29:11;;;;;;;9.20;8.33;;;13.10;99.90;;;;;;4934804;29;20224;-76
2022/04/16 09:31:38;;;;;;;10.43;9.43;;;13.10;99.90;;;;;;4917728;29;20301;-75
2022/04/16 09:34:05;;;;;;;10.80;9.83;;;13.20;99.90;;;;;;4935563;29;20226;-75
2022/04/16 09:36:37;;;;;;;10.97;10.00;;;13.70;99.90;;;;;;4937996;29;20186;-74
2022/04/16 09:39:05;;;;;;;10.83;9.83;;;13.90;99.90;;;;;;4936626;29;20551;-76
2022/04/16 09:41:35;;;;;;;14.60;13.47;;;14.40;99.90;;;;;;4952808;29;20188;-75
2022/04/16 09:44:02;;;;;;;19.57;18.37;;;14.80;99.90;;;;;;4926245;29;20707;-75
2022/04/16 09:46:30;;;;;;;22.40;20.80;;;14.40;99.90;;;;;;4918719;29;20183;-74
2022/04/16 09:49:02;;;;;;;20.00;18.70;;;14.10;99.90;;;;;;4918547;29;20191;-74
2022/04/16 09:51:33;;;;;;;24.23;22.63;;;14.20;99.90;;;;;;4918431;29;20683;-74
2022/04/16 09:54:01;;;;;;;24.23;22.60;;;14.30;99.90;;;;;;4917384;29;20223;-75
2022/04/16 09:56:29;;;;;;;14.40;13.27;;;14.60;99.90;;;;;;4919245;29;20187;-75
2022/04/16 09:58:57;;;;;;;9.80;9.00;;;14.90;99.90;;;;;;4933947;29;20182;-74
2022/04/16 10:01:24;;;;;;;20.13;18.57;;;14.40;99.90;;;;;;4952014;29;20182;-74
2022/04/16 10:03:52;;;;;;;19.27;17.93;;;13.90;99.90;;;;;;4937851;29;20666;-72
2022/04/16 10:06:20;;;;;;;17.13;15.90;;;13.90;99.90;;;;;;4938501;29;20253;-74
2022/04/16 10:08:51;;;;;;;11.20;10.37;;;13.80;99.90;;;;;;4936219;29;20190;-74
2022/04/16 10:11:21;;;;;;;14.70;13.50;;;13.70;99.90;;;;;;4936103;29;20197;-74
2022/04/16 10:14:03;;;;;;;22.93;21.40;;;14.10;99.90;;;;;;4934410;29;20228;-75
2022/04/16 10:16:50;;;;;;;19.10;17.70;;;14.60;99.90;;;;;;4898834;29;20191;-74
2022/04/16 10:19:16;;;;;;;7.37;6.83;;;15.10;99.90;;;;;;4899895;29;20191;-74
2022/04/16 10:21:42;;;;;;;10.17;9.20;;;14.50;99.90;;;;;;4898552;29;20280;-73
2022/04/16 10:24:08;;;;;;;10.00;9.00;;;14.60;99.90;;;;;;4898372;29;20214;-74
2022/04/16 10:26:43;;;;;;;9.20;7.97;;;15.10;99.90;;;;;;4898488;29;20183;-73
2022/04/16 10:29:09;;;;;;;7.53;6.93;;;15.50;99.90;;;;;;4926224;29;20217;-76
2022/04/16 10:31:47;;;;;;;7.77;7.07;;;15.80;99.90;;;;;;4951156;29;20375;-72
2022/04/16 10:34:13;;;;;;;7.30;6.63;;;15.40;99.90;;;;;;4951073;29;20218;-73
2022/04/16 10:36:52;;;;;;;8.20;7.40;;;15.00;99.90;;;;;;4951731;29;20239;-76
2022/04/16 10:39:28;;;;;;;9.23;8.17;;;14.70;99.90;;;;;;4936742;29;20547;-74
2022/04/16 10:42:02;;;;;;;10.00;9.00;;;14.50;99.90;;;;;;4935517;29;20182;-75
2022/04/16 10:44:31;;;;;;;7.70;6.90;;;14.60;99.90;;;;;;4897756;29;20277;-74
2022/04/16 10:46:59;;;;;;;8.30;7.53;;;15.10;99.90;;;;;;4898340;29;20648;-74
2022/04/16 10:49:27;;;;;;;8.70;7.87;;;15.80;99.90;;;;;;4897735;29;20660;-74
2022/04/16 10:51:55;;;;;;;9.10;8.30;;;16.50;99.60;;;;;;4897833;29;20251;-75
2022/04/16 10:54:34;;;;;;;8.70;7.57;;;16.90;97.20;;;;;;4898521;29;20219;-75
2022/04/16 10:57:01;;;;;;;8.27;6.53;;;17.10;95.50;;;;;;4922523;29;20190;-74
2022/04/16 10:59:41;;;;;;;9.03;7.93;;;15.80;96.00;;;;;;4951313;29;20599;-75
2022/04/16 11:02:22;;;;;;;8.33;7.53;;;15.10;97.60;;;;;;4936595;29;20186;-74
2022/04/16 11:05:03;;;;;;;8.80;7.63;;;15.00;98.60;;;;;;4936303;29;20214;-75
2022/04/16 11:07:30;;;;;;;6.70;6.10;;;14.80;98.50;;;;;;4935704;29;20189;-75
2022/04/16 11:09:56;;;;;;;9.47;7.97;;;15.00;97.20;;;;;;4949051;29;20179;-74
2022/04/16 11:12:23;;;;;;;8.10;7.43;;;14.80;97.30;;;;;;4931848;29;20183;-75
2022/04/16 11:14:50;;;;;;;9.27;8.47;;;15.10;97.00;;;;;;4916692;29;20219;-75
2022/04/16 11:17:16;;;;;;;9.17;8.27;;;15.10;97.00;;;;;;4916715;29;20187;-74
2022/04/16 11:19:47;;;;;;;9.50;8.40;;;15.10;96.70;;;;;;4917123;29;20190;-74
2022/04/16 11:22:13;;;;;;;9.00;8.20;;;14.90;97.10;;;;;;4916908;29;20179;-75
2022/04/16 11:24:39;;;;;;;8.30;7.50;;;15.20;96.60;;;;;;4925913;29;20213;-75
2022/04/16 11:35:24;;;;;;;8.60;7.60;;;15.30;95.70;;;;;;4938066;29;20214;-74
2022/04/16 11:37:54;;;;;;;10.70;9.40;;;16.80;94.30;;;;;;4947921;29;20183;-75
2022/04/16 11:40:20;;;;;;;10.57;9.23;;;17.70;92.00;;;;;;4918316;29;20214;-74
2022/04/16 11:42:46;;;;;;;9.40;8.40;;;17.90;87.60;;;;;;4917099;29;20644;-74
2022/04/16 11:45:14;;;;;;;10.07;9.17;;;17.80;86.30;;;;;;4916203;29;20210;-76
2022/04/16 11:47:41;;;;;;;7.53;6.83;;;18.00;86.30;;;;;;4915760;29;20278;-74
2022/04/16 11:50:09;;;;;;;7.90;7.10;;;19.10;82.60;;;;;;4916192;29;20215;-75
2022/04/16 11:52:36;;;;;;;7.43;6.67;;;19.90;78.30;;;;;;4924175;29;20186;-75
2022/04/16 11:55:06;;;;;;;8.40;7.70;;;19.90;75.10;;;;;;4937036;29;20589;-75
2022/04/16 11:57:33;;;;;;;7.97;7.27;;;20.10;75.40;;;;;;4950478;29;20217;-75
2022/04/16 12:00:02;;;;;;;10.43;9.53;;;20.80;69.60;;;;;;4950170;29;20239;-75
2022/04/16 12:02:36;;;;;;;9.48;8.88;;;21.00;66.20;;;;;;4950092;29;20273;-75
2022/04/16 12:05:23;;;;;;;8.23;7.63;;;21.60;61.70;;;;;;4953363;29;20212;-74
2022/04/16 12:07:49;;;;;;;8.97;8.37;;;21.10;57.30;;;;;;4922313;29;20263;-74
2022/04/16 12:10:16;;;;;;;9.10;8.47;;;19.90;59.80;;;;;;4916928;29;20219;-75
2022/04/16 12:12:48;;;;;;;12.60;11.43;;;20.20;59.50;;;;;;4920237;29;20187;-75
2022/04/16 12:15:23;;;;;;;12.17;11.33;;;19.70;61.70;;;;;;4916771;29;20274;-74
2022/04/16 12:17:51;;;;;;;10.27;9.47;;;18.50;62.40;;;;;;4915012;29;20302;-74
2022/04/16 12:20:17;;;;;;;12.10;9.97;;;18.20;65.00;;;;;;4922572;29;20182;-75
2022/04/16 12:22:56;;;;;;;8.30;7.60;;;19.00;63.20;;;;;;4949120;29;20722;-74
2022/04/16 12:25:24;;;;;;;10.77;9.73;;;19.90;61.50;;;;;;4949799;29;20288;-74
2022/04/16 12:27:54;;;;;;;11.10;10.30;;;20.30;60.60;;;;;;4933662;29;20178;-73
2022/04/16 12:30:24;;;;;;;11.27;10.37;;;20.50;59.20;;;;;;4932813;29;20685;-74
2022/04/16 12:33:07;;;;;;;10.63;9.83;;;19.60;61.50;;;;;;4934219;29;20190;-75
2022/04/16 12:35:45;;;;;;;8.27;7.57;;;21.00;59.40;;;;;;4917491;29;20310;-75
2022/04/16 12:38:15;;;;;;;9.17;8.37;;;21.20;55.50;;;;;;4915282;29;20190;-75
2022/04/16 12:40:42;;;;;;;8.50;7.80;;;21.10;57.20;;;;;;4915819;29;20664;-75
2022/04/16 12:43:08;;;;;;;8.07;7.45;;;21.80;55.90;;;;;;4917023;29;20217;-76
2022/04/16 12:45:34;;;;;;;7.50;6.90;;;22.70;54.30;;;;;;4918659;29;20183;-75
2022/04/16 12:48:00;;;;;;;7.87;7.23;;;23.70;50.70;;;;;;4915415;29;20180;-74
2022/04/16 12:50:31;;;;;;;7.67;6.63;;;21.70;52.20;;;;;;4902261;29;20191;-75
2022/04/16 12:52:59;;;;;;;8.93;5.53;;;20.20;53.90;;;;;;4916880;29;20206;-75
2022/04/16 12:55:25;;;;;;;6.77;6.17;;;20.00;54.00;;;;;;4915973;29;20215;-75
2022/04/16 12:57:51;;;;;;;6.30;5.80;;;20.10;55.00;;;;;;4914092;29;20560;-75
2022/04/16 13:00:18;;;;;;;7.03;5.90;;;20.30;53.50;;;;;;4913680;29;20190;-70
2022/04/16 13:02:45;;;;;;;6.13;5.63;;;21.10;52.40;;;;;;4924227;29;20190;-72
2022/04/16 13:05:16;;;;;;;6.30;5.80;;;21.70;50.70;;;;;;4948291;29;20693;-72
2022/04/16 13:07:44;;;;;;;7.40;5.70;;;21.20;52.20;;;;;;4948093;29;20651;-71
2022/04/16 13:10:11;;;;;;;6.57;6.07;;;21.50;51.80;;;;;;4933383;29;20197;-74
2022/04/16 13:12:38;;;;;;;6.80;6.20;;;21.60;51.80;;;;;;4951131;29;20789;-74
2022/04/16 13:15:05;;;;;;;6.80;6.20;;;21.80;50.90;;;;;;4934350;29;20744;-71
2022/04/16 13:17:31;;;;;;;6.70;6.20;;;21.50;51.50;;;;;;4916606;29;20333;-73
2022/04/16 13:19:57;;;;;;;6.37;5.77;;;21.30;52.20;;;;;;4914170;29;20270;-74
2022/04/16 13:22:22;;;;;;;6.13;5.73;;;21.40;53.40;;;;;;4917884;29;20194;-73
2022/04/16 13:24:48;;;;;;;5.80;5.40;;;22.10;50.80;;;;;;4916361;29;20211;-73
2022/04/16 13:27:14;;;;;;;6.40;5.90;;;23.20;47.60;;;;;;4917157;29;20297;-73
2022/04/16 13:29:40;;;;;;;6.25;5.75;;;22.90;47.90;;;;;;4918612;29;20270;-73
2022/04/16 13:32:08;;;;;;;5.03;4.60;;;22.80;47.60;;;;;;4924577;29;20239;-73
2022/04/16 13:34:34;;;;;;;6.13;5.53;;;21.50;49.30;;;;;;4916059;29;20273;-73
2022/04/16 13:37:00;;;;;;;5.50;5.10;;;19.50;54.90;;;;;;4915830;29;20278;-74
2022/04/16 13:42:10;;;;;;;5.77;5.37;;;21.40;53.40;;;;;;4917327;29;20285;-74
2022/04/16 13:44:36;;;;;;;5.27;4.97;;;22.40;50.40;;;;;;4920963;29;20203;-74
2022/04/16 13:47:02;;;;;;;6.20;5.65;;;22.30;51.00;;;;;;4916862;29;20194;-75
2022/04/16 13:49:28;;;;;;;5.80;5.40;;;23.40;49.80;;;;;;4916007;29;20282;-74
2022/04/16 13:51:54;;;;;;;5.10;4.80;;;24.10;45.50;;;;;;4917313;29;20691;-74
2022/04/16 13:54:20;;;;;;;6.37;5.90;;;23.70;46.10;;;;;;4916241;29;20229;-74
2022/04/16 13:56:46;;;;;;;5.00;4.70;;;22.60;46.40;;;;;;4916490;29;20209;-73
2022/04/16 13:59:12;;;;;;;5.70;5.30;;;21.90;48.70;;;;;;4929926;29;20182;-74
2022/04/16 14:01:38;;;;;;;5.77;5.33;;;22.00;49.50;;;;;;4937133;29;20189;-74
2022/04/16 14:04:04;;;;;;;5.37;5.07;;;22.00;47.30;;;;;;4950973;29;20203;-74
2022/04/16 14:06:32;;;;;;;5.80;5.40;;;22.90;47.90;;;;;;4936104;29;20186;-74
2022/04/16 14:08:58;;;;;;;7.47;5.07;;;23.60;45.80;;;;;;4935846;29;20197;-74
2022/04/16 14:11:24;;;;;;;5.55;5.25;;;23.70;43.90;;;;;;4935922;29;20189;-74
2022/04/16 14:13:51;;;;;;;5.80;5.50;;;21.80;47.00;;;;;;4933613;29;20210;-74
2022/04/16 14:16:18;;;;;;;4.80;4.50;;;20.60;49.40;;;;;;4950448;29;20237;-74
2022/04/16 14:18:44;;;;;;;6.43;6.03;;;19.40;51.90;;;;;;4950584;29;20238;-74
2022/04/16 14:21:13;;;;;;;5.63;5.30;;;19.50;53.00;;;;;;4936540;29;20194;-75
2022/04/16 14:23:40;;;;;;;6.53;5.93;;;20.60;50.40;;;;;;4950019;29;20210;-75
2022/04/16 14:26:07;;;;;;;6.13;5.73;;;20.60;50.20;;;;;;4931636;29;20183;-74
2022/04/16 14:28:33;;;;;;;5.10;4.70;;;21.40;49.70;;;;;;4911281;29;20341;-75
2022/04/16 14:30:59;;;;;;;4.78;4.53;;;23.00;47.00;;;;;;4915312;29;20225;-75
2022/04/16 14:33:26;;;;;;;6.07;5.72;;;23.30;45.10;;;;;;4914996;29;20230;-76
2022/04/16 14:35:52;;;;;;;5.73;5.37;;;22.50;45.20;;;;;;4929868;29;20777;-75
2022/04/16 14:38:20;;;;;;;5.00;4.70;;;20.90;46.90;;;;;;4914315;29;20274;-74
2022/04/16 14:40:47;;;;;;;4.23;4.03;;;20.20;49.00;;;;;;4921826;29;20178;-75
2022/04/16 14:43:13;;;;;;;5.00;4.73;;;21.00;46.90;;;;;;4950711;29;20179;-75
2022/04/16 14:45:42;;;;;;;5.40;5.10;;;21.30;45.90;;;;;;4938131;29;20237;-74
2022/04/16 14:48:09;;;;;;;5.07;4.73;;;20.90;47.40;;;;;;4954191;29;20187;-74
2022/04/16 14:50:37;;;;;;;5.47;5.03;;;21.20;47.50;;;;;;4952900;29;20197;-74
2022/04/16 14:53:06;;;;;;;5.00;4.70;;;21.60;46.50;;;;;;4950581;29;20190;-75
2022/04/16 14:55:36;;;;;;;5.90;4.53;;;21.00;46.50;;;;;;4934740;29;20194;-75
2022/04/16 14:58:05;;;;;;;5.70;5.27;;;20.90;46.20;;;;;;4915308;29;20189;-72
2022/04/16 15:00:32;;;;;;;5.87;5.47;;;20.40;45.90;;;;;;4915840;29;20183;-74
2022/04/16 15:02:58;;;;;;;5.30;4.90;;;20.40;45.10;;;;;;4915596;29;20187;-74
2022/04/16 15:05:23;;;;;;;6.07;5.63;;;20.30;44.40;;;;;;4920999;29;20301;-75
2022/04/16 15:07:49;;;;;;;5.43;5.03;;;20.80;44.40;;;;;;4921903;29;20194;-75
2022/04/16 15:10:15;;;;;;;6.38;5.22;;;22.00;42.70;;;;;;4933608;29;20194;-75
2022/04/16 15:12:40;;;;;;;7.80;7.25;;;23.00;41.10;;;;;;4954798;29;20186;-74
2022/04/16 15:15:07;;;;;;;8.50;7.90;;;23.60;39.60;;;;;;4958843;23;20350;-74
2022/04/16 15:17:37;;;;;;;5.80;5.40;;;23.40;38.70;;;;;;4915094;29;20190;-71
2022/04/16 15:20:03;;;;;;;6.10;5.70;;;23.10;37.60;;;;;;4914731;29;20282;-70
2022/04/16 15:22:29;;;;;;;6.50;6.10;;;22.50;37.40;;;;;;4905836;29;20191;-72
2022/04/16 15:24:55;;;;;;;6.53;6.13;;;21.50;38.40;;;;;;4897016;29;20207;-72
2022/04/16 15:27:21;;;;;;;7.43;6.90;;;21.30;39.10;;;;;;4896384;29;20191;-71
2022/04/16 15:29:47;;;;;;;6.23;5.93;;;21.50;39.20;;;;;;4896081;29;20184;-69
2022/04/16 15:32:13;;;;;;;7.93;7.30;;;21.60;40.20;;;;;;4896400;29;20194;-70
2022/04/16 15:34:39;;;;;;;6.60;6.13;;;22.30;39.10;;;;;;4911467;29;20758;-70
2022/04/16 15:37:05;;;;;;;5.82;5.43;;;22.40;37.20;;;;;;4907764;29;20183;-71
2022/04/16 15:39:31;;;;;;;6.28;5.78;;;22.20;37.00;;;;;;4915256;29;20195;-71
2022/04/16 15:42:01;;;;;;;6.65;6.15;;;22.40;37.20;;;;;;4915974;29;20183;-70
2022/04/16 15:44:27;;;;;;;6.83;6.50;;;22.60;36.30;;;;;;4920943;29;20202;-70
2022/04/16 15:46:53;;;;;;;5.83;5.33;;;21.80;36.80;;;;;;4919854;29;20183;-71
2022/04/16 15:49:20;;;;;;;6.30;5.90;;;21.20;38.20;;;;;;4916440;29;20203;-72
2022/04/16 15:51:47;;;;;;;7.17;6.77;;;21.70;37.70;;;;;;4914011;29;20182;-72
2022/04/16 15:54:12;;;;;;;6.77;6.47;;;21.60;37.70;;;;;;4915000;29;20635;-72
2022/04/16 15:56:38;;;;;;;6.20;5.90;;;21.50;36.00;;;;;;4914873;29;20186;-71
2022/04/16 15:59:04;;;;;;;5.70;5.40;;;21.20;36.70;;;;;;4913167;29;20274;-72
2022/04/16 16:01:30;;;;;;;6.20;5.90;;;21.10;36.40;;;;;;4914882;29;20206;-71
2022/04/16 16:03:56;;;;;;;6.47;6.17;;;21.60;36.60;;;;;;4914648;29;20297;-71
2022/04/16 16:06:21;;;;;;;4.90;4.70;;;21.20;35.60;;;;;;4914349;29;20229;-71